Time;durP1;ratioP1;P1;durP2;ratioP2;P2;SDS_P1;SDS_P2;PMS_P1;PMS_P2;Temp;Humidity;BMP_temperature;BMP_pressure;BME280_temperature;BME280_humidity;BME280_pressure;Samples;Min_cycle;Max_cycle;Signal;HPM_P1;HPM_P2
2021/09/28 00:00:32;;;;;;;7.10;3.30;;;28.40;90.60;;;;;;5106944;28;20316;-49
2021/09/28 00:03:00;;;;;;;8.80;3.53;;;28.40;90.50;;;;;;5107147;28;20099;-48
2021/09/28 00:05:26;;;;;;;6.32;3.42;;;28.40;90.60;;;;;;5106690;28;20019;-48
2021/09/28 00:07:53;;;;;;;8.52;3.15;;;28.40;90.60;;;;;;5106696;28;20024;-48
2021/09/28 00:10:20;;;;;;;8.23;2.72;;;28.40;90.50;;;;;;5106749;28;20012;-44
2021/09/28 00:12:47;;;;;;;6.05;2.40;;;28.40;90.50;;;;;;5106635;28;20019;-45
2021/09/28 00:15:15;;;;;;;4.25;2.15;;;28.40;90.50;;;;;;5106726;28;20065;-49
2021/09/28 00:17:43;;;;;;;5.07;2.30;;;28.30;90.50;;;;;;5106498;28;20024;-45
2021/09/28 00:20:10;;;;;;;5.00;2.65;;;28.30;90.60;;;;;;5106332;28;20015;-47
2021/09/28 00:22:37;;;;;;;6.18;2.38;;;28.30;90.60;;;;;;5105515;28;20017;-45
2021/09/28 00:25:06;;;;;;;7.00;2.22;;;28.20;90.50;;;;;;5106477;28;20048;-45
2021/09/28 00:27:33;;;;;;;7.53;2.00;;;28.20;90.40;;;;;;5106208;28;20016;-44
2021/09/28 00:30:00;;;;;;;7.63;2.13;;;28.20;90.30;;;;;;5106498;28;20040;-45
2021/09/28 00:32:27;;;;;;;4.15;2.33;;;28.20;90.30;;;;;;5106268;28;20028;-44
2021/09/28 00:34:54;;;;;;;8.70;1.90;;;28.20;90.20;;;;;;5106248;28;20122;-47
2021/09/28 00:37:24;;;;;;;5.95;1.83;;;28.20;89.90;;;;;;5106139;28;20318;-48
2021/09/28 00:39:50;;;;;;;6.20;1.75;;;28.20;89.60;;;;;;5106477;28;20039;-49
2021/09/28 00:42:17;;;;;;;3.15;1.90;;;28.20;89.50;;;;;;5105995;28;20235;-46
2021/09/28 00:44:46;;;;;;;4.47;1.90;;;28.10;89.40;;;;;;5106639;28;20043;-46
2021/09/28 00:47:15;;;;;;;3.80;1.95;;;28.10;89.10;;;;;;5106364;28;20037;-46
2021/09/28 00:49:44;;;;;;;3.58;1.98;;;28.10;89.10;;;;;;5106409;28;20100;-44
2021/09/28 00:52:14;;;;;;;6.57;1.65;;;28.10;88.50;;;;;;5106005;28;20020;-47
2021/09/28 00:54:41;;;;;;;5.30;1.75;;;28.10;88.60;;;;;;5105884;28;20079;-48
2021/09/28 00:57:09;;;;;;;5.65;1.70;;;28.10;88.30;;;;;;5105846;28;20028;-44
2021/09/28 00:59:37;;;;;;;4.65;1.60;;;28.10;88.00;;;;;;5105794;28;20081;-45
2021/09/28 01:02:06;;;;;;;7.20;1.88;;;28.00;87.80;;;;;;5106015;28;20181;-44
2021/09/28 01:04:32;;;;;;;7.82;2.13;;;28.00;87.70;;;;;;5106187;28;20357;-48
2021/09/28 01:07:05;;;;;;;6.13;1.80;;;28.00;87.50;;;;;;5104708;28;20216;-46
2021/09/28 01:09:33;;;;;;;7.68;1.60;;;28.00;87.40;;;;;;5105821;28;20118;-48
2021/09/28 01:12:00;;;;;;;3.22;1.63;;;27.90;87.40;;;;;;5104609;28;20024;-49
2021/09/28 01:14:27;;;;;;;7.93;1.40;;;27.90;87.40;;;;;;5106310;28;20200;-47
2021/09/28 01:16:55;;;;;;;6.85;1.52;;;27.90;87.20;;;;;;5105571;28;20031;-46
2021/09/28 01:19:22;;;;;;;5.88;1.45;;;27.90;87.10;;;;;;5106068;28;20027;-49
2021/09/28 01:21:50;;;;;;;2.45;1.63;;;27.90;87.00;;;;;;5105498;28;20020;-48
2021/09/28 01:24:18;;;;;;;4.75;1.60;;;27.90;86.90;;;;;;5104463;28;20031;-45
2021/09/28 01:26:45;;;;;;;3.97;1.45;;;27.90;86.70;;;;;;5105547;28;20031;-47
2021/09/28 01:29:12;;;;;;;4.25;1.70;;;27.80;86.30;;;;;;5104367;28;20059;-52
2021/09/28 01:31:38;;;;;;;3.58;1.60;;;27.80;86.30;;;;;;5105308;28;20023;-46
2021/09/28 01:34:06;;;;;;;7.30;1.80;;;27.80;86.30;;;;;;5105604;28;20020;-48
2021/09/28 01:36:34;;;;;;;5.28;1.50;;;27.80;86.40;;;;;;5104106;28;20012;-47
2021/09/28 01:39:03;;;;;;;3.40;1.80;;;27.80;86.10;;;;;;5105252;28;20032;-44
2021/09/28 01:41:31;;;;;;;4.80;1.58;;;27.80;86.10;;;;;;5105131;28;20028;-46
2021/09/28 01:44:09;;;;;;;4.22;1.45;;;27.80;86.10;;;;;;5105516;28;20028;-43
2021/09/28 01:46:38;;;;;;;4.85;1.70;;;27.70;86.60;;;;;;5105217;28;20067;-43
2021/09/28 01:49:08;;;;;;;6.10;1.30;;;27.70;86.30;;;;;;5103810;28;20047;-44
2021/09/28 01:51:36;;;;;;;5.93;1.67;;;27.70;86.50;;;;;;5104921;28;20196;-44
2021/09/28 01:54:04;;;;;;;6.15;1.48;;;27.70;86.40;;;;;;5105661;28;20031;-48
2021/09/28 01:56:31;;;;;;;7.25;1.70;;;27.70;86.70;;;;;;5105419;28;20349;-47
2021/09/28 01:59:00;;;;;;;4.25;1.70;;;27.80;86.70;;;;;;5104163;28;20399;-46
2021/09/28 02:01:27;;;;;;;6.25;1.73;;;27.80;86.70;;;;;;5103751;28;20303;-47
2021/09/28 02:03:55;;;;;;;2.85;1.58;;;27.80;86.80;;;;;;5104979;28;20043;-47
2021/09/28 02:06:24;;;;;;;6.18;2.05;;;27.80;86.90;;;;;;5104445;28;20031;-46
2021/09/28 02:08:51;;;;;;;4.38;1.70;;;27.80;87.00;;;;;;5104901;28;20038;-50
2021/09/28 02:11:20;;;;;;;5.00;1.73;;;27.80;87.00;;;;;;5103386;28;20271;-45
2021/09/28 02:13:49;;;;;;;5.00;1.83;;;27.80;86.90;;;;;;5103420;28;20032;-46
2021/09/28 02:16:18;;;;;;;8.93;2.83;;;27.80;87.00;;;;;;5104530;28;20065;-45
2021/09/28 02:18:44;;;;;;;9.18;3.25;;;27.80;87.10;;;;;;5104788;28;20040;-48
2021/09/28 02:21:11;;;;;;;6.25;3.10;;;27.70;87.30;;;;;;5104371;28;20024;-47
2021/09/28 02:23:38;;;;;;;6.72;2.83;;;27.70;87.40;;;;;;5104271;28;20082;-47
2021/09/28 02:26:05;;;;;;;6.90;3.47;;;27.70;87.30;;;;;;5104454;28;20085;-50
2021/09/28 02:28:31;;;;;;;7.90;3.28;;;27.70;87.30;;;;;;5104484;28;20023;-45
2021/09/28 02:30:58;;;;;;;6.57;3.03;;;27.70;87.10;;;;;;5104559;28;20320;-44
2021/09/28 02:33:25;;;;;;;9.32;3.40;;;27.70;87.30;;;;;;5104599;28;20055;-47
2021/09/28 02:35:51;;;;;;;7.57;3.60;;;27.70;87.40;;;;;;5104239;28;20024;-46
2021/09/28 02:38:18;;;;;;;7.30;4.00;;;27.70;87.40;;;;;;5104226;28;20347;-42
2021/09/28 02:40:45;;;;;;;9.25;4.30;;;27.70;87.30;;;;;;5104293;28;20069;-46
2021/09/28 02:43:13;;;;;;;8.00;4.25;;;27.70;87.40;;;;;;5104292;28;20061;-45
2021/09/28 02:45:40;;;;;;;9.68;4.25;;;27.70;87.50;;;;;;5104181;28;20036;-47
2021/09/28 02:48:07;;;;;;;13.52;4.40;;;27.70;87.50;;;;;;5102926;28;20047;-51
2021/09/28 02:50:34;;;;;;;8.98;4.07;;;27.70;87.50;;;;;;5103878;28;20208;-46
2021/09/28 02:53:02;;;;;;;10.15;5.00;;;27.70;87.60;;;;;;5102848;28;20087;-46
2021/09/28 02:55:29;;;;;;;14.35;9.85;;;27.70;87.70;;;;;;5104077;28;20012;-47
2021/09/28 02:57:56;;;;;;;10.48;6.40;;;27.60;87.50;;;;;;5104114;28;20028;-45
2021/09/28 03:00:22;;;;;;;12.50;5.82;;;27.60;87.10;;;;;;5103986;28;20247;-46
2021/09/28 03:02:49;;;;;;;12.80;5.93;;;27.60;86.90;;;;;;5103972;28;20300;-45
2021/09/28 03:05:16;;;;;;;8.57;5.20;;;27.60;87.00;;;;;;5103906;28;20065;-44
2021/09/28 03:07:43;;;;;;;8.25;4.63;;;27.60;86.90;;;;;;5103640;28;20024;-45
2021/09/28 03:10:10;;;;;;;9.25;4.40;;;27.60;86.60;;;;;;5105242;28;20012;-45
2021/09/28 03:12:37;;;;;;;7.15;3.90;;;27.50;86.50;;;;;;5107916;28;20016;-44
2021/09/28 03:15:04;;;;;;;11.90;3.83;;;27.50;86.50;;;;;;5107839;28;20075;-47
2021/09/28 03:17:31;;;;;;;8.27;3.17;;;27.50;86.60;;;;;;5106836;28;20019;-46
2021/09/28 03:19:57;;;;;;;8.32;3.13;;;27.50;86.60;;;;;;5107834;28;20035;-50
2021/09/28 03:22:24;;;;;;;8.60;3.33;;;27.50;86.80;;;;;;5107727;28;20028;-45
2021/09/28 03:24:51;;;;;;;5.43;2.65;;;27.50;86.90;;;;;;5107696;28;20020;-44
2021/09/28 03:27:17;;;;;;;8.68;2.80;;;27.50;86.90;;;;;;5107761;28;20362;-47
2021/09/28 03:29:44;;;;;;;5.18;2.25;;;27.50;87.10;;;;;;5108091;28;20024;-45
2021/09/28 03:32:10;;;;;;;3.85;2.60;;;27.50;87.10;;;;;;5107730;28;20069;-47
2021/09/28 03:34:38;;;;;;;6.15;2.92;;;27.50;87.20;;;;;;5108025;28;20075;-53
2021/09/28 03:37:06;;;;;;;4.15;2.15;;;27.50;87.40;;;;;;5107379;28;20243;-48
2021/09/28 03:39:32;;;;;;;6.35;2.17;;;27.50;87.40;;;;;;5107921;28;20122;-48
2021/09/28 03:42:00;;;;;;;6.32;2.17;;;27.50;87.30;;;;;;5107477;28;20028;-45
2021/09/28 03:44:26;;;;;;;7.15;2.28;;;27.50;87.30;;;;;;5107677;28;20058;-45
2021/09/28 03:46:53;;;;;;;4.07;2.30;;;27.40;87.30;;;;;;5107351;28;20030;-47
2021/09/28 03:49:19;;;;;;;8.70;2.30;;;27.40;87.20;;;;;;5107602;28;20020;-50
2021/09/28 03:51:46;;;;;;;3.75;2.00;;;27.40;87.20;;;;;;5107035;28;20048;-46
2021/09/28 03:54:13;;;;;;;6.47;1.98;;;27.40;87.20;;;;;;5107628;28;20058;-46
2021/09/28 03:56:39;;;;;;;8.18;1.77;;;27.40;87.70;;;;;;5107097;28;20031;-45
2021/09/28 03:59:06;;;;;;;7.60;1.90;;;27.40;87.30;;;;;;5106978;28;20240;-45
2021/09/28 04:01:33;;;;;;;5.80;2.00;;;27.40;87.10;;;;;;5107107;28;20028;-45
2021/09/28 04:04:00;;;;;;;6.60;2.20;;;27.40;87.00;;;;;;5107314;28;20024;-49
2021/09/28 04:06:26;;;;;;;6.25;2.10;;;27.40;86.70;;;;;;5106794;28;20047;-47
2021/09/28 04:08:53;;;;;;;4.97;1.80;;;27.40;86.70;;;;;;5106904;28;20056;-47
2021/09/28 04:11:20;;;;;;;4.28;1.80;;;27.40;86.70;;;;;;5107034;28;20019;-46
2021/09/28 04:13:48;;;;;;;4.45;1.70;;;27.40;86.60;;;;;;5105598;28;20024;-48
2021/09/28 04:16:16;;;;;;;5.43;1.98;;;27.40;86.60;;;;;;5107082;28;20024;-49
2021/09/28 04:18:45;;;;;;;6.57;1.90;;;27.30;86.60;;;;;;5107011;28;20046;-46
2021/09/28 04:21:12;;;;;;;7.00;1.88;;;27.30;86.70;;;;;;5106061;28;20020;-43
2021/09/28 04:23:40;;;;;;;7.07;2.08;;;27.30;86.50;;;;;;5106998;28;20028;-44
2021/09/28 04:26:07;;;;;;;8.82;1.90;;;27.30;86.50;;;;;;5106648;28;20224;-44
2021/09/28 04:28:35;;;;;;;7.53;2.03;;;27.30;86.60;;;;;;5106562;28;20369;-46
2021/09/28 04:31:02;;;;;;;6.18;2.25;;;27.30;86.80;;;;;;5106410;28;20028;-47
2021/09/28 04:33:28;;;;;;;7.78;2.15;;;27.30;86.70;;;;;;5106545;28;20047;-45
2021/09/28 04:35:55;;;;;;;6.30;1.70;;;27.30;86.70;;;;;;5106221;28;20020;-45
2021/09/28 04:38:22;;;;;;;9.45;2.03;;;27.30;87.00;;;;;;5106534;28;20030;-45
2021/09/28 04:40:48;;;;;;;4.47;1.83;;;27.20;86.80;;;;;;5106292;28;20020;-46
2021/09/28 04:43:15;;;;;;;7.68;2.13;;;27.20;86.80;;;;;;5106361;28;20039;-48
2021/09/28 04:45:41;;;;;;;6.15;2.10;;;27.20;86.70;;;;;;5106291;28;20027;-46
2021/09/28 04:48:08;;;;;;;6.63;2.15;;;27.20;86.80;;;;;;5106394;28;20020;-47
2021/09/28 04:50:35;;;;;;;4.00;1.73;;;27.20;86.80;;;;;;5105054;28;20020;-48
2021/09/28 04:53:01;;;;;;;6.85;1.88;;;27.20;86.70;;;;;;5106217;28;20035;-45
2021/09/28 04:55:28;;;;;;;10.82;2.67;;;27.20;86.80;;;;;;5106009;28;20028;-44
2021/09/28 04:57:55;;;;;;;9.82;2.40;;;27.20;86.90;;;;;;5106077;28;20023;-48
2021/09/28 05:00:21;;;;;;;11.75;2.95;;;27.20;87.00;;;;;;5104668;28;20089;-47
2021/09/28 05:02:48;;;;;;;13.75;2.63;;;27.20;87.30;;;;;;5106227;28;20039;-47
2021/09/28 05:05:14;;;;;;;8.95;2.40;;;27.20;87.40;;;;;;5106140;28;20023;-46
2021/09/28 05:07:41;;;;;;;9.30;2.40;;;27.20;87.30;;;;;;5105626;28;20023;-46
2021/09/28 05:10:08;;;;;;;10.30;2.08;;;27.20;87.30;;;;;;5105858;28;20012;-46
2021/09/28 05:12:35;;;;;;;9.43;2.28;;;27.20;87.40;;;;;;5105792;28;20016;-46
2021/09/28 05:15:02;;;;;;;8.70;2.10;;;27.20;87.50;;;;;;5105451;28;20061;-51
2021/09/28 05:17:29;;;;;;;8.20;2.10;;;27.20;87.40;;;;;;5105511;28;20039;-51
2021/09/28 05:19:58;;;;;;;8.80;2.60;;;27.10;87.30;;;;;;5105581;28;20048;-46
2021/09/28 05:22:25;;;;;;;10.25;2.50;;;27.20;87.30;;;;;;5087177;28;20038;-46
2021/09/28 05:24:54;;;;;;;8.25;2.22;;;27.10;87.50;;;;;;5105806;28;20027;-45
2021/09/28 05:27:21;;;;;;;4.25;1.92;;;27.10;87.60;;;;;;5105306;28;20061;-46
2021/09/28 05:29:48;;;;;;;9.52;2.17;;;27.10;87.70;;;;;;5105038;28;20024;-47
2021/09/28 05:32:14;;;;;;;11.82;2.67;;;27.10;87.90;;;;;;5104511;28;20062;-46
2021/09/28 05:34:41;;;;;;;9.10;2.30;;;27.10;87.90;;;;;;5104211;28;20024;-47
2021/09/28 05:37:08;;;;;;;7.53;1.90;;;27.10;88.00;;;;;;5105221;28;20039;-46
2021/09/28 05:39:35;;;;;;;7.55;1.90;;;27.00;87.90;;;;;;5105186;28;20024;-45
2021/09/28 05:42:01;;;;;;;7.70;2.17;;;27.00;87.90;;;;;;5104951;28;20019;-50
2021/09/28 05:44:28;;;;;;;6.40;2.38;;;27.10;87.90;;;;;;5105388;28;20039;-48
2021/09/28 05:46:54;;;;;;;6.70;1.90;;;27.00;87.70;;;;;;5105102;28;20189;-48
2021/09/28 05:49:21;;;;;;;8.43;2.28;;;27.00;87.70;;;;;;5105207;28;20121;-55
2021/09/28 05:51:52;;;;;;;9.20;2.22;;;27.00;87.60;;;;;;5104863;28;20200;-45
2021/09/28 05:54:20;;;;;;;5.35;1.98;;;27.00;87.50;;;;;;5104796;28;20369;-48
2021/09/28 05:56:48;;;;;;;7.95;1.95;;;27.00;87.40;;;;;;5104824;28;20020;-47
2021/09/28 05:59:15;;;;;;;10.65;1.80;;;27.00;87.40;;;;;;5104608;28;20115;-45
2021/09/28 06:01:42;;;;;;;7.85;1.98;;;27.00;87.40;;;;;;5104786;28;20019;-46
2021/09/28 06:04:09;;;;;;;4.57;2.03;;;26.90;87.50;;;;;;5105089;28;20032;-45
2021/09/28 06:06:36;;;;;;;5.75;2.10;;;27.00;87.50;;;;;;5104522;28;20028;-47
2021/09/28 06:09:04;;;;;;;7.95;2.10;;;26.90;87.40;;;;;;5104923;28;20117;-46
2021/09/28 06:11:31;;;;;;;4.72;1.90;;;26.90;87.50;;;;;;5104552;28;20023;-45
2021/09/28 06:13:57;;;;;;;8.25;2.05;;;26.90;87.60;;;;;;5104716;28;20319;-48
2021/09/28 06:16:24;;;;;;;8.30;2.20;;;26.90;87.60;;;;;;5104508;28;20031;-46
2021/09/28 06:18:51;;;;;;;7.07;2.22;;;26.90;87.60;;;;;;5104790;28;20031;-47
2021/09/28 06:21:17;;;;;;;8.35;1.83;;;26.90;88.10;;;;;;5104326;28;20363;-45
2021/09/28 06:23:44;;;;;;;9.68;2.08;;;26.90;87.60;;;;;;5104675;28;20043;-45
2021/09/28 06:26:11;;;;;;;5.53;1.75;;;26.90;87.60;;;;;;5104697;28;20327;-47
2021/09/28 06:28:37;;;;;;;8.55;2.00;;;26.90;87.80;;;;;;5104358;28;20028;-46
2021/09/28 06:31:04;;;;;;;6.13;2.03;;;26.80;87.60;;;;;;5104273;28;20019;-46
2021/09/28 06:33:31;;;;;;;6.57;1.92;;;26.80;87.50;;;;;;5104509;28;20024;-45
2021/09/28 06:35:57;;;;;;;11.20;2.08;;;26.80;87.50;;;;;;5104088;28;20027;-45
2021/09/28 06:38:24;;;;;;;6.43;1.90;;;26.80;87.40;;;;;;5104538;28;20300;-45
2021/09/28 06:40:50;;;;;;;10.07;2.15;;;26.80;87.30;;;;;;5104161;28;20024;-45
2021/09/28 06:43:17;;;;;;;6.28;1.80;;;26.80;87.40;;;;;;5103981;28;20028;-46
2021/09/28 06:45:43;;;;;;;4.55;2.00;;;26.80;87.40;;;;;;5104026;28;20024;-46
2021/09/28 06:48:10;;;;;;;7.22;1.90;;;26.80;87.40;;;;;;5104137;28;20028;-48
2021/09/28 06:50:36;;;;;;;9.27;1.90;;;26.80;87.40;;;;;;5103793;28;20012;-45
2021/09/28 06:53:03;;;;;;;9.65;2.15;;;26.80;87.30;;;;;;5104080;28;20193;-45
2021/09/28 06:55:30;;;;;;;7.15;2.00;;;26.80;87.30;;;;;;5103964;28;20012;-46
2021/09/28 06:57:56;;;;;;;7.85;2.25;;;26.80;87.30;;;;;;5103922;28;20031;-48
2021/09/28 07:00:23;;;;;;;3.00;1.88;;;26.80;87.30;;;;;;5103745;28;20250;-47
2021/09/28 07:02:49;;;;;;;4.50;1.92;;;26.70;87.40;;;;;;5104060;28;20035;-46
2021/09/28 07:05:17;;;;;;;11.68;2.25;;;26.70;87.20;;;;;;5103878;28;20316;-45
2021/09/28 07:07:44;;;;;;;7.82;1.95;;;26.70;87.10;;;;;;5104002;28;20024;-45
2021/09/28 07:10:11;;;;;;;6.25;2.10;;;26.70;87.10;;;;;;5103783;28;20061;-47
2021/09/28 07:12:37;;;;;;;4.90;1.85;;;26.70;87.10;;;;;;5103789;28;20012;-45
2021/09/28 07:15:07;;;;;;;6.38;1.90;;;26.70;87.20;;;;;;5103715;28;20334;-47
2021/09/28 07:17:34;;;;;;;5.38;1.88;;;26.70;87.20;;;;;;5103783;28;20020;-45
2021/09/28 07:20:02;;;;;;;4.32;2.10;;;26.70;87.30;;;;;;5103755;28;20024;-46
2021/09/28 07:22:30;;;;;;;6.63;2.20;;;26.70;87.20;;;;;;5103948;28;20069;-47
2021/09/28 07:24:57;;;;;;;4.63;1.90;;;26.60;87.00;;;;;;5104114;28;20312;-46
2021/09/28 07:27:24;;;;;;;6.07;2.20;;;26.60;87.10;;;;;;5103582;28;20069;-47
2021/09/28 07:29:50;;;;;;;8.45;1.98;;;26.60;87.30;;;;;;5103557;28;20024;-48
2021/09/28 07:32:17;;;;;;;6.40;2.05;;;26.60;87.30;;;;;;5103677;28;20016;-45
2021/09/28 07:34:44;;;;;;;7.25;2.10;;;26.60;87.20;;;;;;5104163;28;20069;-46
2021/09/28 07:37:10;;;;;;;5.25;2.30;;;26.60;87.30;;;;;;5103496;28;20020;-50
2021/09/28 07:39:37;;;;;;;5.13;2.30;;;26.60;87.30;;;;;;5104067;28;20016;-47
2021/09/28 07:42:05;;;;;;;5.38;2.53;;;26.60;87.30;;;;;;5103556;28;20047;-49
2021/09/28 07:44:31;;;;;;;7.03;2.15;;;26.60;87.30;;;;;;5103878;28;20024;-51
2021/09/28 07:46:58;;;;;;;6.05;2.17;;;26.60;87.30;;;;;;5103505;28;20032;-49
2021/09/28 07:49:26;;;;;;;4.65;2.05;;;26.60;87.40;;;;;;5103792;28;20024;-47
2021/09/28 07:51:54;;;;;;;7.47;2.30;;;26.60;87.40;;;;;;5103387;28;20024;-49
2021/09/28 07:54:21;;;;;;;7.50;2.80;;;26.60;87.50;;;;;;5103929;28;20020;-47
2021/09/28 07:56:47;;;;;;;6.30;2.30;;;26.50;87.40;;;;;;5105829;28;20091;-44
2021/09/28 07:59:14;;;;;;;6.10;2.60;;;26.60;87.70;;;;;;5107043;28;20055;-47
2021/09/28 08:01:40;;;;;;;7.03;2.53;;;26.50;87.60;;;;;;5107065;28;20028;-49
2021/09/28 08:04:07;;;;;;;7.47;2.67;;;26.50;87.70;;;;;;5107450;28;20222;-50
2021/09/28 08:06:33;;;;;;;6.75;2.58;;;26.50;87.80;;;;;;5106864;28;20027;-49
2021/09/28 08:09:00;;;;;;;7.65;2.58;;;26.50;88.00;;;;;;5106896;28;20063;-53
2021/09/28 08:11:26;;;;;;;9.02;2.75;;;26.50;88.00;;;;;;5106877;28;20020;-55
2021/09/28 08:13:54;;;;;;;7.30;2.35;;;26.50;88.10;;;;;;5107047;28;20023;-46
2021/09/28 08:16:21;;;;;;;4.57;2.50;;;26.50;88.10;;;;;;5106794;28;20096;-50
2021/09/28 08:18:48;;;;;;;8.48;2.53;;;26.50;88.20;;;;;;5107029;28;20024;-52
2021/09/28 08:21:14;;;;;;;5.43;2.40;;;26.50;88.20;;;;;;5106587;28;20324;-52
2021/09/28 08:23:41;;;;;;;7.40;2.65;;;26.50;88.20;;;;;;5106917;28;20208;-48
2021/09/28 08:29:12;;;;;;;6.70;2.20;;;26.40;88.20;;;;;;5105470;28;20209;-49
2021/09/28 08:31:47;;;;;;;8.10;2.40;;;26.40;88.10;;;;;;5106335;28;20334;-53
2021/09/28 08:34:15;;;;;;;6.80;2.58;;;26.40;88.00;;;;;;5105498;28;20318;-53
2021/09/28 08:36:41;;;;;;;23.48;4.10;;;26.30;87.90;;;;;;5106415;28;20044;-52
2021/09/28 08:39:12;;;;;;;23.80;3.97;;;26.40;87.70;;;;;;5106604;28;20024;-48
2021/09/28 08:41:39;;;;;;;52.42;7.45;;;26.30;87.70;;;;;;5106610;28;20035;-53
2021/09/28 08:44:06;;;;;;;99.93;10.45;;;26.30;87.70;;;;;;5106710;28;20052;-51
2021/09/28 08:46:33;;;;;;;87.10;10.30;;;26.30;88.10;;;;;;5106081;28;20047;-54
2021/09/28 08:48:59;;;;;;;120.00;10.32;;;26.30;87.50;;;;;;5106278;28;20307;-49
2021/09/28 08:51:26;;;;;;;116.68;12.48;;;26.30;87.50;;;;;;5106066;28;20486;-53
2021/09/28 08:53:52;;;;;;;106.38;10.23;;;26.30;87.60;;;;;;5106226;28;20092;-55
2021/09/28 08:56:19;;;;;;;77.50;8.55;;;26.30;87.70;;;;;;5106104;28;20263;-49
2021/09/28 08:58:57;;;;;;;58.88;7.35;;;26.30;87.60;;;;;;5105994;28;20050;-51
2021/09/28 09:01:24;;;;;;;60.83;8.00;;;26.30;87.50;;;;;;5105855;28;20044;-49
2021/09/28 09:03:51;;;;;;;58.90;7.25;;;26.30;87.50;;;;;;5106135;28;20035;-50
2021/09/28 09:06:18;;;;;;;51.33;7.15;;;26.30;87.50;;;;;;5105787;28;20061;-48
2021/09/28 09:08:51;;;;;;;50.80;6.40;;;26.30;87.60;;;;;;5105836;28;20027;-52
2021/09/28 09:11:18;;;;;;;49.72;7.82;;;26.30;87.80;;;;;;5106249;28;20332;-53
2021/09/28 09:13:51;;;;;;;54.83;6.93;;;26.30;87.80;;;;;;5105719;28;20207;-51
2021/09/28 09:16:19;;;;;;;60.08;7.07;;;26.30;88.00;;;;;;5105826;28;20328;-52
2021/09/28 09:18:49;;;;;;;76.07;7.82;;;26.20;88.00;;;;;;5105814;28;20027;-47
2021/09/28 09:21:16;;;;;;;60.15;7.63;;;26.30;88.10;;;;;;5105353;28;20243;-48
2021/09/28 09:23:45;;;;;;;57.80;7.55;;;26.20;88.20;;;;;;5105724;28;20355;-50
2021/09/28 09:26:18;;;;;;;64.03;7.43;;;26.20;88.20;;;;;;5105421;28;20032;-48
2021/09/28 09:28:58;;;;;;;55.35;6.65;;;26.20;88.10;;;;;;5105461;28;20039;-47
2021/09/28 09:31:39;;;;;;;52.08;6.32;;;26.20;88.20;;;;;;5105269;28;20020;-50
2021/09/28 09:34:09;;;;;;;53.72;6.35;;;26.20;88.20;;;;;;5105713;28;20417;-53
2021/09/28 09:36:37;;;;;;;42.00;6.35;;;26.20;88.40;;;;;;5105204;28;20369;-54
2021/09/28 09:39:09;;;;;;;42.70;5.80;;;26.20;88.90;;;;;;5104063;28;20216;-53
2021/09/28 09:41:39;;;;;;;39.15;6.18;;;26.20;88.40;;;;;;5105204;28;20316;-53
2021/09/28 09:44:12;;;;;;;36.40;5.63;;;26.20;88.40;;;;;;5105407;28;20036;-53
2021/09/28 09:46:47;;;;;;;35.03;6.03;;;26.20;88.40;;;;;;5105192;28;20020;-54
2021/09/28 09:49:16;;;;;;;32.60;5.65;;;26.20;88.60;;;;;;5103895;28;20032;-52
2021/09/28 09:51:46;;;;;;;33.40;5.32;;;26.10;88.60;;;;;;5104758;28;20316;-52
2021/09/28 09:54:13;;;;;;;32.25;5.57;;;26.10;88.60;;;;;;5103982;28;20265;-52
2021/09/28 09:56:53;;;;;;;24.50;4.38;;;26.10;88.60;;;;;;5104909;28;20027;-54
2021/09/28 09:59:22;;;;;;;21.95;4.97;;;26.10;88.60;;;;;;5104979;28;20119;-54
2021/09/28 10:01:50;;;;;;;21.70;4.50;;;26.10;88.60;;;;;;5104790;28;20024;-48
2021/09/28 10:04:19;;;;;;;17.45;4.45;;;26.10;88.60;;;;;;5105040;28;20035;-45
2021/09/28 10:06:46;;;;;;;16.75;4.25;;;26.10;88.60;;;;;;5104675;28;20024;-46
2021/09/28 10:09:19;;;;;;;17.67;4.65;;;26.10;88.60;;;;;;5105000;28;20316;-47
2021/09/28 10:11:52;;;;;;;13.30;4.03;;;26.10;88.60;;;;;;5104402;28;20227;-47
2021/09/28 10:14:35;;;;;;;15.73;4.07;;;26.10;88.60;;;;;;5104934;28;20020;-47
2021/09/28 10:17:24;;;;;;;12.00;3.92;;;26.10;88.80;;;;;;5104367;28;20018;-46
2021/09/28 10:19:53;;;;;;;12.07;4.13;;;26.10;88.80;;;;;;5104126;28;20032;-48
2021/09/28 10:22:52;;;;;;;13.80;3.88;;;26.00;88.60;;;;;;5104184;28;20039;-44
2021/09/28 10:28:19;;;;;;;12.77;3.60;;;26.00;88.60;;;;;;5104396;28;20085;-53
2021/09/28 10:30:47;;;;;;;12.40;3.72;;;26.00;88.60;;;;;;5102994;28;20038;-52
2021/09/28 10:33:31;;;;;;;13.05;3.55;;;26.00;88.60;;;;;;5104410;28;20328;-54
2021/09/28 10:36:07;;;;;;;8.77;3.53;;;26.00;88.70;;;;;;5104021;28;20308;-49
2021/09/28 10:38:43;;;;;;;15.93;3.53;;;26.00;88.80;;;;;;5104086;28;20228;-46
2021/09/28 10:41:39;;;;;;;12.93;3.78;;;26.00;88.80;;;;;;5104017;28;20020;-51
2021/09/28 10:44:29;;;;;;;6.05;2.92;;;26.00;88.90;;;;;;5104476;28;20070;-54
2021/09/28 10:46:56;;;;;;;9.05;3.50;;;26.00;88.80;;;;;;5104088;28;20036;-52
2021/09/28 10:49:31;;;;;;;11.80;3.88;;;26.00;88.80;;;;;;5104334;28;20331;-53
2021/09/28 10:52:22;;;;;;;9.73;3.70;;;26.00;88.80;;;;;;5104053;28;20030;-52
2021/09/28 10:55:11;;;;;;;10.60;4.03;;;26.00;88.80;;;;;;5103896;28;20024;-51
2021/09/28 10:58:00;;;;;;;7.68;3.60;;;25.90;88.70;;;;;;5103947;28;20016;-51
2021/09/28 11:00:30;;;;;;;7.22;3.40;;;25.90;88.70;;;;;;5103765;28;20336;-52
2021/09/28 11:02:58;;;;;;;7.72;3.50;;;25.90;88.80;;;;;;5104112;28;20036;-53
2021/09/28 11:05:41;;;;;;;11.57;3.75;;;25.90;89.00;;;;;;5103816;28;20098;-47
2021/09/28 11:08:10;;;;;;;15.25;5.72;;;25.90;89.00;;;;;;5104149;28;20067;-45
2021/09/28 11:10:37;;;;;;;12.25;5.20;;;25.90;88.90;;;;;;5103674;28;20119;-44
2021/09/28 11:13:13;;;;;;;12.20;4.10;;;25.90;88.80;;;;;;5104012;28;20032;-43
2021/09/28 11:15:40;;;;;;;7.95;3.92;;;25.90;88.60;;;;;;5103823;28;20020;-43
2021/09/28 11:18:08;;;;;;;8.98;3.70;;;25.80;88.50;;;;;;5103833;28;20027;-44
2021/09/28 11:20:36;;;;;;;7.40;3.80;;;25.80;88.70;;;;;;5103726;28;20024;-45
2021/09/28 11:23:11;;;;;;;9.07;3.90;;;25.80;88.70;;;;;;5103705;28;20024;-47
2021/09/28 11:25:49;;;;;;;8.25;3.50;;;25.80;88.80;;;;;;5103736;28;20308;-46
2021/09/28 11:28:18;;;;;;;9.73;3.47;;;25.80;88.90;;;;;;5103802;28;20034;-48
2021/09/28 11:31:14;;;;;;;22.17;16.20;;;25.80;89.00;;;;;;5104222;28;20027;-48
2021/09/28 11:33:45;;;;;;;21.45;19.30;;;25.80;89.10;;;;;;5107226;28;20257;-51
2021/09/28 11:36:14;;;;;;;14.88;11.82;;;25.80;89.30;;;;;;5107717;28;20043;-52
2021/09/28 11:38:44;;;;;;;14.63;8.80;;;25.80;89.40;;;;;;5107756;28;20028;-51
2021/09/28 11:41:14;;;;;;;11.43;7.03;;;25.80;89.30;;;;;;5107352;28;20308;-52
2021/09/28 11:43:42;;;;;;;13.50;5.68;;;25.80;89.40;;;;;;5107748;28;20028;-53
2021/09/28 11:46:15;;;;;;;7.72;5.22;;;25.80;89.40;;;;;;5107318;28;20050;-51
2021/09/28 11:48:58;;;;;;;8.73;4.60;;;25.80;89.40;;;;;;5106057;28;20142;-46
2021/09/28 11:51:39;;;;;;;7.80;3.88;;;25.80;89.40;;;;;;5107598;28;20331;-44
2021/09/28 11:54:08;;;;;;;6.75;3.70;;;25.80;89.50;;;;;;5107576;28;20095;-44
2021/09/28 11:56:38;;;;;;;6.47;3.50;;;25.80;89.60;;;;;;5107187;28;20057;-45
2021/09/28 11:59:09;;;;;;;7.53;3.30;;;25.80;89.90;;;;;;5107003;28;20389;-45
2021/09/28 12:01:36;;;;;;;7.90;3.38;;;25.80;90.00;;;;;;5107094;28;20024;-45
2021/09/28 12:04:43;;;;;;;5.95;3.70;;;25.90;90.10;;;;;;5107369;28;20316;-47
2021/09/28 12:09:53;;;;;;;10.60;4.13;;;25.90;90.10;;;;;;5106813;28;20020;-52
2021/09/28 12:12:22;;;;;;;11.35;3.83;;;25.90;90.00;;;;;;5106821;28;20008;-51
2021/09/28 12:14:57;;;;;;;12.35;3.70;;;25.90;90.10;;;;;;5106701;28;20065;-52
2021/09/28 12:17:38;;;;;;;6.82;3.35;;;25.90;90.10;;;;;;5106743;28;20024;-52
2021/09/28 12:20:12;;;;;;;6.45;3.92;;;25.90;90.20;;;;;;5106575;28;20047;-51
2021/09/28 12:22:44;;;;;;;10.35;3.53;;;26.00;90.30;;;;;;5106742;28;20016;-53
2021/09/28 12:25:13;;;;;;;;;;;26.00;90.40;;;;;;5107112;28;20047;-48
2021/09/28 12:28:03;;;;;;;12.93;3.97;;;26.00;90.40;;;;;;5106465;28;19979;-43
2021/09/28 12:30:34;;;;;;;9.95;3.88;;;26.00;90.50;;;;;;5106554;28;20300;-43
2021/09/28 12:33:02;;;;;;;14.32;4.32;;;26.00;90.60;;;;;;5106600;28;20312;-46
2021/09/28 12:35:37;;;;;;;11.80;3.75;;;26.00;90.60;;;;;;5106574;28;20312;-50
2021/09/28 12:38:07;;;;;;;9.52;3.83;;;26.00;90.50;;;;;;5106618;28;20019;-49
2021/09/28 12:40:41;;;;;;;12.13;3.78;;;26.00;90.70;;;;;;5106436;28;20016;-50
2021/09/28 12:43:11;;;;;;;8.57;4.45;;;26.10;90.60;;;;;;5106197;28;20091;-50
2021/09/28 12:45:51;;;;;;;7.93;3.90;;;26.10;90.60;;;;;;5106273;28;20034;-47
2021/09/28 12:48:24;;;;;;;6.82;3.75;;;26.10;90.70;;;;;;5106590;28;20327;-47
2021/09/28 12:51:02;;;;;;;7.35;4.38;;;26.20;90.60;;;;;;5106043;28;20027;-51
2021/09/28 12:53:30;;;;;;;8.70;4.20;;;26.20;90.60;;;;;;5106382;28;20024;-46
2021/09/28 12:55:57;;;;;;;7.03;4.30;;;26.20;90.60;;;;;;5106193;28;20020;-51
2021/09/28 12:58:26;;;;;;;5.43;3.25;;;26.20;90.60;;;;;;5106205;28;20035;-52
2021/09/28 13:00:54;;;;;;;8.38;3.60;;;26.30;90.60;;;;;;5105964;28;20031;-50